createdAt,value
2017-12-26T15:44:44.422Z,22.43
2017-12-26T15:47:10.798Z,22.55
2017-12-26T15:49:37.222Z,22.58
2017-12-26T15:52:03.660Z,22.69
2017-12-26T15:54:29.991Z,22.73
2017-12-26T15:56:56.350Z,22.72
2017-12-26T15:59:22.715Z,22.69
2017-12-26T16:01:49.084Z,22.69
2017-12-26T16:04:16.636Z,22.68
2017-12-26T16:08:52.655Z,22.74
2017-12-26T16:11:19.879Z,22.74
2017-12-26T16:15:06.148Z,22.83
2017-12-26T16:17:33.316Z,22.77
2017-12-26T16:20:00.554Z,22.76
2017-12-26T16:22:27.709Z,22.84
2017-12-26T16:24:55.648Z,22.82
2017-12-26T16:27:22.832Z,22.87
2017-12-26T16:29:50.027Z,22.93
2017-12-26T16:32:15.980Z,22.93
2017-12-26T16:34:41.948Z,23.06
2017-12-26T16:37:08.022Z,23.04
2017-12-26T16:39:34.154Z,23.08
2017-12-26T16:42:00.329Z,23.03
2017-12-26T16:44:26.470Z,23.03
2017-12-26T16:46:52.593Z,23.05
2017-12-26T16:49:18.738Z,23.07
2017-12-26T16:51:44.709Z,23.07
2017-12-26T16:54:10.825Z,23.07
2017-12-26T16:56:36.966Z,23.11
2017-12-26T16:59:02.932Z,23.14
2017-12-26T17:01:28.875Z,23.15
2017-12-26T17:03:54.834Z,23.16
2017-12-26T17:06:20.794Z,23.12
2017-12-26T17:08:46.762Z,23.16
2017-12-26T17:11:12.835Z,23.14
2017-12-26T17:13:38.978Z,23.14
2017-12-26T17:16:04.966Z,23.13
2017-12-26T17:18:30.990Z,23.11
2017-12-26T17:20:56.941Z,23.17
2017-12-26T17:23:23.114Z,23.18
2017-12-26T17:25:49.083Z,23.19
2017-12-26T17:28:15.031Z,23.19
2017-12-26T17:30:41.176Z,23.18
2017-12-26T17:33:07.149Z,23.16
2017-12-26T17:35:33.094Z,23.20
2017-12-26T17:37:59.047Z,22.99
2017-12-26T17:40:24.982Z,22.87
2017-12-26T17:59:10.466Z,22.37
2017-12-26T18:01:36.418Z,22.37
2017-12-26T18:04:02.376Z,22.39
2017-12-26T18:06:28.330Z,22.40
2017-12-26T18:08:54.363Z,22.38
2017-12-26T18:11:20.323Z,22.42
2017-12-26T18:13:46.278Z,22.42
2017-12-26T18:16:12.254Z,22.41
2017-12-26T18:18:38.208Z,22.38
2017-12-26T18:21:04.182Z,22.30
2017-12-26T18:23:30.134Z,22.31
2017-12-26T18:25:56.114Z,22.33
2017-12-26T18:28:22.066Z,22.26
2017-12-26T18:30:48.045Z,22.47
2017-12-26T18:33:13.990Z,22.53
2017-12-26T18:35:42.012Z,22.43
2017-12-26T18:38:07.966Z,22.39
2017-12-26T18:40:33.936Z,22.46
2017-12-26T18:42:59.905Z,22.24
2017-12-26T18:45:25.861Z,22.24
2017-12-26T18:47:51.849Z,22.23
2017-12-26T18:50:17.813Z,22.33
2017-12-26T18:52:43.789Z,22.16
2017-12-26T18:55:09.743Z,22.11
2017-12-26T18:57:35.885Z,22.10
2017-12-26T19:00:02.021Z,22.17
2017-12-26T19:02:28.054Z,22.11
2017-12-26T19:04:54.035Z,22.20
2017-12-26T19:07:20.053Z,22.18
2017-12-26T19:09:45.998Z,22.19
2017-12-26T19:12:11.974Z,22.24
2017-12-26T19:14:37.949Z,22.32
2017-12-26T19:17:03.892Z,22.21
2017-12-26T19:19:29.872Z,22.35
2017-12-26T19:21:55.842Z,22.41
2017-12-26T19:24:21.801Z,22.40
2017-12-26T19:26:47.749Z,22.32
2017-12-26T19:29:13.908Z,22.32
2017-12-26T19:31:39.890Z,22.35
2017-12-26T19:34:05.865Z,22.33
2017-12-26T19:36:31.829Z,22.24
2017-12-26T19:38:57.809Z,22.20
2017-12-26T19:41:23.761Z,22.12
2017-12-26T19:43:49.709Z,22.29
2017-12-26T19:46:15.682Z,22.16
2017-12-26T19:48:41.646Z,22.23
2017-12-26T19:51:07.742Z,22.16
2017-12-26T19:53:33.735Z,22.28
2017-12-26T19:55:59.705Z,22.30
2017-12-26T19:58:25.685Z,22.31
2017-12-26T20:00:51.637Z,22.28
2017-12-26T20:03:17.591Z,22.43
2017-12-26T20:05:43.584Z,22.27
2017-12-26T20:08:09.489Z,22.30
2017-12-26T20:10:35.453Z,22.33
2017-12-26T20:13:01.396Z,22.34
2017-12-26T20:15:27.349Z,22.38
2017-12-26T20:17:53.294Z,22.31
2017-12-26T20:20:19.254Z,22.33
2017-12-26T20:22:45.208Z,22.27
2017-12-26T20:25:11.355Z,22.30
2017-12-26T20:27:37.286Z,22.16
2017-12-26T20:30:03.642Z,22.26
2017-12-26T20:32:29.592Z,22.13
2017-12-26T20:34:55.564Z,22.22
2017-12-26T20:37:21.530Z,22.07
2017-12-26T20:39:47.473Z,22.03
2017-12-26T20:42:13.547Z,22.12
2017-12-26T20:44:39.570Z,22.02
2017-12-26T20:47:05.541Z,22.11
2017-12-26T20:49:31.533Z,22.26
2017-12-26T20:51:57.467Z,22.11
2017-12-26T20:54:23.433Z,22.26
2017-12-26T20:56:49.379Z,22.34
2017-12-26T20:59:15.351Z,22.27
2017-12-26T21:01:41.293Z,22.32
2017-12-26T21:04:07.242Z,22.24
2017-12-26T21:06:36.857Z,22.07
2017-12-26T21:09:02.810Z,22.11
2017-12-26T21:11:28.753Z,22.28
2017-12-26T21:13:54.714Z,22.14
2017-12-26T21:16:21.814Z,22.20
2017-12-26T21:18:47.757Z,22.10
2017-12-26T21:21:13.715Z,22.17
2017-12-26T21:23:40.337Z,22.23
2017-12-26T21:26:07.421Z,22.12
2017-12-26T21:28:33.393Z,22.06
2017-12-26T21:30:59.484Z,22.09
2017-12-26T21:33:25.561Z,22.09
2017-12-26T21:35:51.561Z,22.02
2017-12-26T21:38:17.502Z,22.01
2017-12-26T21:40:43.471Z,22.08
2017-12-26T21:43:09.483Z,21.93
2017-12-26T21:45:35.473Z,21.94
2017-12-26T21:48:01.430Z,21.84
2017-12-26T21:50:27.397Z,21.83
2017-12-26T21:52:53.373Z,21.69
2017-12-26T21:55:19.348Z,21.67
2017-12-26T21:57:45.302Z,21.87
2017-12-26T22:00:11.281Z,21.66
2017-12-26T22:02:37.241Z,21.64
2017-12-26T22:05:03.195Z,21.54
2017-12-26T22:07:29.160Z,21.55
2017-12-26T22:09:55.114Z,21.62
2017-12-26T22:12:21.082Z,21.54
2017-12-26T22:14:47.027Z,21.51
2017-12-26T22:17:13.008Z,21.46
2017-12-26T22:19:38.950Z,21.51
2017-12-26T22:22:04.918Z,21.48
2017-12-26T22:24:30.871Z,21.44
2017-12-26T22:26:56.817Z,21.51
2017-12-26T22:29:22.781Z,21.42
2017-12-26T22:31:48.745Z,21.58
2017-12-26T22:34:14.762Z,21.54
2017-12-26T22:36:40.701Z,21.60
2017-12-26T22:39:06.661Z,21.60
2017-12-26T22:41:32.608Z,21.57
2017-12-26T22:43:58.576Z,21.51
2017-12-26T22:46:24.539Z,21.49
2017-12-26T22:48:50.502Z,21.49
2017-12-26T22:51:16.479Z,21.48
2017-12-26T22:53:42.407Z,21.47
2017-12-26T22:56:08.352Z,21.49
2017-12-26T22:58:34.305Z,21.50
2017-12-26T23:01:00.247Z,21.52
2017-12-26T23:03:26.242Z,21.52
2017-12-26T23:05:52.222Z,21.45
2017-12-26T23:08:18.169Z,21.41
2017-12-26T23:10:44.169Z,21.44
2017-12-26T23:13:10.155Z,21.42
2017-12-26T23:15:36.123Z,21.51
2017-12-26T23:18:02.062Z,21.47
2017-12-26T23:20:28.015Z,21.53
2017-12-26T23:22:53.974Z,21.52
2017-12-26T23:25:19.955Z,21.58
2017-12-26T23:27:45.934Z,21.55
2017-12-26T23:30:11.898Z,21.39
2017-12-26T23:32:37.841Z,21.36
2017-12-26T23:35:03.955Z,21.47
2017-12-26T23:37:29.938Z,21.40
2017-12-26T23:39:55.902Z,21.37
2017-12-26T23:42:21.857Z,21.52
2017-12-26T23:44:47.801Z,21.42
2017-12-26T23:47:13.771Z,21.48
2017-12-26T23:49:39.744Z,21.36
2017-12-26T23:52:05.715Z,21.37
2017-12-26T23:54:31.653Z,21.34
2017-12-26T23:56:57.652Z,21.32
2017-12-26T23:59:23.817Z,21.41
